createdAt,value
2023-04-23T10:22:18.401Z,58.74
2023-04-23T10:24:56.028Z,59.37
2023-04-23T10:27:36.643Z,59.68
2023-04-23T10:30:08.807Z,58.20
2023-04-23T10:34:15.787Z,58.85
2023-04-23T10:36:42.291Z,56.90
2023-04-23T10:39:10.497Z,55.21
2023-04-23T10:41:39.403Z,58.21
2023-04-23T10:44:07.385Z,59.20
2023-04-23T10:46:37.788Z,58.18
2023-04-23T10:49:16.670Z,57.13
2023-04-23T10:52:17.711Z,56.06
2023-04-23T10:54:36.246Z,54.23
2023-04-23T10:57:04.992Z,54.99
2023-04-23T10:59:32.142Z,55.28
2023-04-23T11:02:19.944Z,55.20
2023-04-23T11:04:58.342Z,53.68
2023-04-23T11:07:32.950Z,53.20
2023-04-23T11:10:01.191Z,51.39
2023-04-23T11:12:27.612Z,55.79
2023-04-23T11:14:55.430Z,54.86
2023-04-23T11:17:23.806Z,54.32
2023-04-23T11:20:13.483Z,53.59
2023-04-23T11:22:44.850Z,52.05
2023-04-23T11:25:19.155Z,53.08
2023-04-23T11:27:48.217Z,51.58
2023-04-23T11:30:19.804Z,52.19
2023-04-23T11:32:49.751Z,49.41
2023-04-23T11:35:18.106Z,53.74
2023-04-23T11:37:45.753Z,52.43
2023-04-23T11:40:19.425Z,51.14
2023-04-23T11:42:47.391Z,51.48
2023-04-23T11:45:24.933Z,52.08
2023-04-23T11:47:57.206Z,52.65
2023-04-23T11:50:33.376Z,49.25
2023-04-23T11:53:08.998Z,50.80
2023-04-23T11:55:35.800Z,51.87
2023-04-23T11:58:03.412Z,50.86
2023-04-23T12:00:30.084Z,52.43
2023-04-23T12:02:58.752Z,55.15
2023-04-23T12:05:28.398Z,51.79
2023-04-23T12:07:55.398Z,53.11
2023-04-23T12:10:22.864Z,51.52
2023-04-23T12:12:53.132Z,52.72
2023-04-23T12:15:20.805Z,50.55
2023-04-23T12:17:51.548Z,49.65
2023-04-23T12:20:22.475Z,52.30
2023-04-23T12:22:49.072Z,52.08
2023-04-23T12:25:16.010Z,52.10
2023-04-23T12:27:44.811Z,54.18
2023-04-23T12:30:12.098Z,52.65
2023-04-23T12:32:38.823Z,52.35
2023-04-23T12:35:06.391Z,50.45
2023-04-23T12:37:37.516Z,51.51
2023-04-23T12:40:07.428Z,50.00
2023-04-23T12:42:35.105Z,48.47
2023-04-23T12:45:09.993Z,51.11
2023-04-23T12:47:36.656Z,49.56
2023-04-23T12:50:05.652Z,49.00
2023-04-23T12:52:32.223Z,47.49
2023-04-23T12:55:00.502Z,49.89
2023-04-23T12:57:27.773Z,49.32
2023-04-23T12:59:55.228Z,49.50
2023-04-23T13:02:22.318Z,50.99
2023-04-23T13:04:48.855Z,50.94
2023-04-23T13:07:15.557Z,52.67
2023-04-23T13:09:42.342Z,52.81
2023-04-23T13:12:09.295Z,53.89
2023-04-23T13:14:36.158Z,53.96
2023-04-23T13:17:02.722Z,51.78
2023-04-23T13:19:29.412Z,53.80
2023-04-23T13:21:55.928Z,52.02
2023-04-23T13:24:22.515Z,52.69
2023-04-23T13:26:49.132Z,52.32
2023-04-23T13:29:16.032Z,53.44
2023-04-23T13:31:42.533Z,52.48
2023-04-23T13:34:09.011Z,53.99
2023-04-23T13:36:35.547Z,52.06
2023-04-23T13:39:02.060Z,52.92
2023-04-23T13:41:29.027Z,54.76
2023-04-23T13:43:55.461Z,54.60
2023-04-23T13:46:22.107Z,52.42
2023-04-23T13:48:48.609Z,54.26
2023-04-23T13:51:33.258Z,50.85
2023-04-23T13:54:01.766Z,52.21
2023-04-23T13:56:30.175Z,52.66
2023-04-23T13:59:17.450Z,52.28
2023-04-23T14:01:47.358Z,53.70
2023-04-23T14:04:14.009Z,52.52
2023-04-23T14:06:40.634Z,51.75
2023-04-23T14:09:16.380Z,52.00
2023-04-23T14:11:42.944Z,50.61
2023-04-23T14:14:09.638Z,50.00
2023-04-23T14:16:36.592Z,49.31
2023-04-23T14:19:03.522Z,48.75
2023-04-23T14:21:30.102Z,49.05
2023-04-23T14:24:02.797Z,50.73
2023-04-23T14:29:30.627Z,53.27
2023-04-23T14:31:57.157Z,55.06
2023-04-23T14:34:23.742Z,55.71
2023-04-23T14:36:52.927Z,56.43
2023-04-23T14:39:20.069Z,58.38
2023-04-23T14:41:46.647Z,57.99
2023-04-23T14:44:13.181Z,58.33
2023-04-23T14:46:39.863Z,59.09
2023-04-23T14:49:06.601Z,58.51
2023-04-23T14:51:33.328Z,61.50
2023-04-23T14:53:59.852Z,57.55
2023-04-23T14:56:27.478Z,66.26
2023-04-23T14:58:54.079Z,70.27
2023-04-23T15:01:20.737Z,72.63
2023-04-23T15:03:47.775Z,72.52
2023-04-23T15:06:14.912Z,73.55
2023-04-23T15:08:41.414Z,74.50
2023-04-23T15:11:13.452Z,75.45
2023-04-23T15:14:06.539Z,75.86
2023-04-23T15:16:48.118Z,77.72
2023-04-23T15:19:18.027Z,78.64
2023-04-23T15:21:45.277Z,78.26
2023-04-23T15:24:12.456Z,81.15
2023-04-23T15:26:39.457Z,81.08
2023-04-23T15:29:09.169Z,79.97
2023-04-23T15:31:36.885Z,82.40
2023-04-23T15:34:06.273Z,82.04
2023-04-23T15:36:33.401Z,81.92
2023-04-23T15:38:59.884Z,84.07
2023-04-23T15:41:27.089Z,83.79
2023-04-23T15:43:55.013Z,83.13
2023-04-23T15:46:21.624Z,85.31
2023-04-23T15:48:48.202Z,85.25
2023-04-23T15:51:14.692Z,85.46
2023-04-23T15:53:41.161Z,86.09
2023-04-23T15:56:07.614Z,86.87
2023-04-23T15:58:34.143Z,86.19
2023-04-23T16:01:01.922Z,86.23
2023-04-23T16:03:28.690Z,86.36
2023-04-23T16:05:55.822Z,85.91
2023-04-23T16:08:22.323Z,86.05
2023-04-23T16:10:48.802Z,86.71
2023-04-23T16:13:15.306Z,86.38
2023-04-23T16:15:41.843Z,86.54
2023-04-23T16:18:08.431Z,86.36
2023-04-23T16:20:36.109Z,87.00
2023-04-23T16:23:02.658Z,87.34
2023-04-23T16:25:29.185Z,86.79
2023-04-23T16:27:56.133Z,86.94
2023-04-23T16:30:23.428Z,87.64
2023-04-23T16:32:50.162Z,87.40
2023-04-23T16:35:16.885Z,87.80
2023-04-23T16:37:43.536Z,87.35
2023-04-23T16:40:10.502Z,87.53
2023-04-23T16:42:37.136Z,87.72
2023-04-23T16:45:04.867Z,88.29
2023-04-23T16:47:31.358Z,87.61
2023-04-23T16:49:58.065Z,87.11
2023-04-23T16:52:25.000Z,88.22
2023-04-23T16:54:51.583Z,87.32
2023-04-23T16:57:18.518Z,87.65
2023-04-23T16:59:45.098Z,87.55
2023-04-23T17:02:11.919Z,87.53
2023-04-23T17:04:38.918Z,87.14
2023-04-23T17:07:05.656Z,87.61
2023-04-23T17:09:32.472Z,87.32
2023-04-23T17:11:59.488Z,87.39
2023-04-23T17:14:26.665Z,86.75
2023-04-23T17:16:53.421Z,87.27
2023-04-23T17:19:19.991Z,87.85
2023-04-23T17:21:46.559Z,87.89
2023-04-23T17:24:13.165Z,87.92
2023-04-23T17:26:39.845Z,88.50
2023-04-23T17:29:06.775Z,88.59
2023-04-23T17:31:34.832Z,88.88
2023-04-23T17:34:02.723Z,88.59
2023-04-23T17:36:29.383Z,88.92
2023-04-23T17:38:55.970Z,88.84
2023-04-23T17:41:22.885Z,89.07
2023-04-23T17:43:49.945Z,89.80
2023-04-23T17:46:16.905Z,89.03
2023-04-23T17:48:43.935Z,89.19
2023-04-23T17:51:10.631Z,89.89
2023-04-23T17:53:37.184Z,89.20
2023-04-23T17:56:03.853Z,89.79
2023-04-23T17:58:30.949Z,89.56
2023-04-23T18:00:57.545Z,89.91
2023-04-23T18:03:24.788Z,90.06
2023-04-23T18:05:51.618Z,90.42
2023-04-23T18:08:19.643Z,89.65
2023-04-23T18:10:46.322Z,89.97
2023-04-23T18:13:13.729Z,89.85
2023-04-23T18:15:42.120Z,90.19
2023-04-23T18:18:09.405Z,90.23
2023-04-23T18:20:38.498Z,90.14
2023-04-23T18:23:06.732Z,90.74
2023-04-23T18:25:33.628Z,90.58
2023-04-23T18:28:00.156Z,90.48
2023-04-23T18:30:26.838Z,90.96
2023-04-23T18:33:33.265Z,90.68
2023-04-23T18:36:20.434Z,90.27
2023-04-23T18:38:46.935Z,90.95
2023-04-23T18:41:13.498Z,90.39
2023-04-23T18:43:40.315Z,91.28
2023-04-23T18:46:06.938Z,90.94
2023-04-23T18:48:39.052Z,90.47
2023-04-23T18:51:14.528Z,90.83
2023-04-23T18:53:41.144Z,91.67
2023-04-23T18:56:07.923Z,91.10
2023-04-23T18:58:34.560Z,91.18
2023-04-23T19:01:01.253Z,91.63
2023-04-23T19:03:29.322Z,91.35
2023-04-23T19:05:56.064Z,91.43
2023-04-23T19:08:28.474Z,91.48
2023-04-23T19:10:55.952Z,91.88
2023-04-23T19:13:22.927Z,91.51
2023-04-23T19:15:52.790Z,91.88
2023-04-23T19:18:20.072Z,91.77
2023-04-23T19:20:46.610Z,92.00
2023-04-23T19:23:13.353Z,91.17
2023-04-23T19:25:39.905Z,91.98
2023-04-23T19:28:06.550Z,91.76
2023-04-23T19:30:33.238Z,91.57
2023-04-23T19:33:00.275Z,92.16
2023-04-23T19:35:26.998Z,91.78
2023-04-23T19:37:53.751Z,91.55
2023-04-23T19:40:20.300Z,91.89
2023-04-23T19:42:46.848Z,91.63
2023-04-23T19:45:15.462Z,92.47
2023-04-23T19:47:42.346Z,91.39
2023-04-23T19:50:09.827Z,92.31
2023-04-23T19:52:36.834Z,92.19
2023-04-23T19:55:03.542Z,92.24
2023-04-23T19:57:30.101Z,92.91
2023-04-23T19:59:56.601Z,92.13
2023-04-23T20:02:23.931Z,92.54
2023-04-23T20:04:50.440Z,92.53
2023-04-23T20:07:17.484Z,92.96
2023-04-23T20:09:44.431Z,93.02
2023-04-23T20:12:11.385Z,92.41
2023-04-23T20:14:37.940Z,92.83
2023-04-23T20:17:04.724Z,92.90
2023-04-23T20:19:31.341Z,93.00
2023-04-23T20:21:57.995Z,93.55
2023-04-23T20:24:24.588Z,93.19
2023-04-23T20:26:51.802Z,92.57
2023-04-23T20:29:18.330Z,93.24
2023-04-23T20:31:49.202Z,92.50
2023-04-23T20:34:16.949Z,92.69
2023-04-23T20:36:46.786Z,92.63
2023-04-23T20:39:13.374Z,92.27
2023-04-23T20:41:40.100Z,92.65
2023-04-23T20:44:06.619Z,92.13
2023-04-23T20:46:33.125Z,92.60
2023-04-23T20:49:03.574Z,92.33
2023-04-23T20:51:34.068Z,92.64
2023-04-23T20:54:01.500Z,92.57
2023-04-23T20:56:29.224Z,92.22
2023-04-23T20:58:57.493Z,92.44
2023-04-23T21:01:25.604Z,92.59
2023-04-23T21:03:54.006Z,92.21
2023-04-23T21:06:21.594Z,92.48
2023-04-23T21:08:48.958Z,92.67
2023-04-23T21:11:17.847Z,92.67
2023-04-23T21:13:45.145Z,92.34
2023-04-23T21:16:11.871Z,92.67
2023-04-23T21:18:40.668Z,92.60
2023-04-23T21:21:07.962Z,92.36
2023-04-23T21:23:34.848Z,92.73
2023-04-23T21:26:01.702Z,92.89
2023-04-23T21:28:28.188Z,92.46
2023-04-23T21:30:56.237Z,93.07
2023-04-23T21:33:24.841Z,92.43
2023-04-23T21:35:53.510Z,93.03
2023-04-23T21:38:21.515Z,92.77
2023-04-23T21:40:48.541Z,92.15
2023-04-23T21:43:15.249Z,92.57
2023-04-23T21:45:41.940Z,92.37
2023-04-23T21:48:08.672Z,92.67
2023-04-23T21:50:36.040Z,93.14
2023-04-23T21:53:04.054Z,93.01
2023-04-23T21:55:31.731Z,92.87
2023-04-23T21:58:09.831Z,92.61
2023-04-23T22:00:44.730Z,92.80
2023-04-23T22:03:11.999Z,93.16
2023-04-23T22:05:39.966Z,93.38
2023-04-23T22:08:09.773Z,92.83
2023-04-23T22:10:42.784Z,93.73
2023-04-23T22:13:10.027Z,93.21
2023-04-23T22:15:36.866Z,93.45
2023-04-23T22:18:03.598Z,93.53
2023-04-23T22:20:30.652Z,93.96
2023-04-23T22:22:57.296Z,93.30
2023-04-23T22:25:24.577Z,93.80
2023-04-23T22:27:51.057Z,94.03
2023-04-23T22:30:17.617Z,93.45
2023-04-23T22:32:44.129Z,93.29
2023-04-23T22:35:10.777Z,93.92
2023-04-23T22:37:37.801Z,93.70
2023-04-23T22:40:05.232Z,94.10
2023-04-23T22:42:31.677Z,94.45
2023-04-23T22:44:58.235Z,94.22
2023-04-23T22:47:24.914Z,94.22
2023-04-23T22:49:51.612Z,94.73
2023-04-23T22:52:18.270Z,94.69
2023-04-23T22:54:44.958Z,94.65
2023-04-23T22:57:11.897Z,94.71
2023-04-23T22:59:41.955Z,94.98
2023-04-23T23:02:08.790Z,94.63
2023-04-23T23:04:38.451Z,94.47
2023-04-23T23:07:05.947Z,94.34
2023-04-23T23:09:32.740Z,93.44
2023-04-23T23:12:03.946Z,93.70
2023-04-23T23:14:33.191Z,93.90
2023-04-23T23:16:59.852Z,94.75
2023-04-23T23:19:30.964Z,94.56
2023-04-23T23:21:57.603Z,94.43
2023-04-23T23:24:24.138Z,94.56
2023-04-23T23:26:51.079Z,94.19
2023-04-23T23:29:17.590Z,94.80
2023-04-23T23:31:44.340Z,94.27
2023-04-23T23:34:11.336Z,94.47
2023-04-23T23:36:37.937Z,94.86
2023-04-23T23:39:04.613Z,94.76
2023-04-23T23:41:31.059Z,94.63
2023-04-23T23:43:57.513Z,94.57
2023-04-23T23:46:24.090Z,94.61
2023-04-23T23:48:50.662Z,94.93
2023-04-23T23:51:17.153Z,94.76
2023-04-23T23:53:43.667Z,94.48
2023-04-23T23:56:10.172Z,95.05
2023-04-23T23:58:36.660Z,94.00
